sensor_id;sensor_type;location;lat;lon;timestamp;pressure;altitude;pressure_sealevel;temperature;humidity
34243;BME280;20504;43.214;27.920;2023-06-10T00:01:53;97311.69;;;21.70;100.00
34243;BME280;20504;43.214;27.920;2023-06-10T00:04:25;97300.53;;;21.62;100.00
34243;BME280;20504;43.214;27.920;2023-06-10T00:06:51;97271.50;;;21.69;100.00
34243;BME280;20504;43.214;27.920;2023-06-10T00:09:16;97159.75;;;21.60;100.00
34243;BME280;20504;43.214;27.920;2023-06-10T00:11:43;97140.81;;;21.55;100.00
34243;BME280;20504;43.214;27.920;2023-06-10T00:14:09;97118.44;;;21.54;100.00
34243;BME280;20504;43.214;27.920;2023-06-10T00:16:35;97100.81;;;21.46;100.00
34243;BME280;20504;43.214;27.920;2023-06-10T00:19:02;97064.72;;;21.48;100.00
34243;BME280;20504;43.214;27.920;2023-06-10T00:21:29;97084.91;;;21.45;100.00
34243;BME280;20504;43.214;27.920;2023-06-10T00:23:55;97084.72;;;21.52;100.00
34243;BME280;20504;43.214;27.920;2023-06-10T00:26:24;97059.84;;;21.44;100.00
34243;BME280;20504;43.214;27.920;2023-06-10T00:28:51;97076.38;;;21.53;100.00
34243;BME280;20504;43.214;27.920;2023-06-10T00:31:17;97092.63;;;21.58;100.00
34243;BME280;20504;43.214;27.920;2023-06-10T00:33:43;97111.09;;;21.50;100.00
34243;BME280;20504;43.214;27.920;2023-06-10T00:36:08;97121.88;;;21.50;100.00
34243;BME280;20504;43.214;27.920;2023-06-10T00:38:34;97146.69;;;21.52;100.00
34243;BME280;20504;43.214;27.920;2023-06-10T00:40:59;97158.03;;;21.54;100.00
34243;BME280;20504;43.214;27.920;2023-06-10T00:43:25;97177.72;;;21.54;100.00
34243;BME280;20504;43.214;27.920;2023-06-10T00:45:51;97210.75;;;21.61;100.00
34243;BME280;20504;43.214;27.920;2023-06-10T00:48:17;97227.41;;;21.58;100.00
34243;BME280;20504;43.214;27.920;2023-06-10T00:50:43;97223.69;;;21.42;100.00
34243;BME280;20504;43.214;27.920;2023-06-10T00:53:09;97251.44;;;21.43;100.00
34243;BME280;20504;43.214;27.920;2023-06-10T00:55:35;97217.72;;;21.40;100.00
34243;BME280;20504;43.214;27.920;2023-06-10T00:58:01;97219.75;;;21.33;100.00
34243;BME280;20504;43.214;27.920;2023-06-10T01:00:28;97210.53;;;21.29;100.00
34243;BME280;20504;43.214;27.920;2023-06-10T01:02:53;97205.16;;;21.29;100.00
34243;BME280;20504;43.214;27.920;2023-06-10T01:05:19;97197.22;;;21.39;100.00
34243;BME280;20504;43.214;27.920;2023-06-10T01:08:07;97207.19;;;21.22;100.00
34243;BME280;20504;43.214;27.920;2023-06-10T01:13:13;97176.00;;;21.26;100.00
34243;BME280;20504;43.214;27.920;2023-06-10T01:15:39;97175.31;;;21.19;100.00
34243;BME280;20504;43.214;27.920;2023-06-10T01:18:08;97190.84;;;21.12;100.00
34243;BME280;20504;43.214;27.920;2023-06-10T01:20:36;97184.16;;;21.14;100.00
34243;BME280;20504;43.214;27.920;2023-06-10T01:23:06;97166.28;;;21.08;100.00
34243;BME280;20504;43.214;27.920;2023-06-10T01:25:32;97161.53;;;21.15;100.00
34243;BME280;20504;43.214;27.920;2023-06-10T01:30:52;97135.97;;;21.18;100.00
34243;BME280;20504;43.214;27.920;2023-06-10T01:33:29;97144.50;;;21.10;100.00
34243;BME280;20504;43.214;27.920;2023-06-10T01:35:57;97140.09;;;21.21;100.00
34243;BME280;20504;43.214;27.920;2023-06-10T01:38:25;97127.56;;;21.31;100.00
34243;BME280;20504;43.214;27.920;2023-06-10T01:40:53;97118.94;;;21.29;100.00
34243;BME280;20504;43.214;27.920;2023-06-10T01:43:20;97116.41;;;21.23;100.00
34243;BME280;20504;43.214;27.920;2023-06-10T01:45:45;97144.81;;;21.30;100.00
34243;BME280;20504;43.214;27.920;2023-06-10T01:48:11;97169.25;;;21.07;100.00
34243;BME280;20504;43.214;27.920;2023-06-10T01:50:36;97174.56;;;21.02;100.00
34243;BME280;20504;43.214;27.920;2023-06-10T01:53:04;97155.34;;;20.98;100.00
34243;BME280;20504;43.214;27.920;2023-06-10T01:55:30;97146.31;;;21.04;100.00
34243;BME280;20504;43.214;27.920;2023-06-10T01:57:55;97142.56;;;21.05;100.00
34243;BME280;20504;43.214;27.920;2023-06-10T02:00:21;97148.91;;;20.99;100.00
34243;BME280;20504;43.214;27.920;2023-06-10T02:02:46;97178.47;;;20.77;100.00
34243;BME280;20504;43.214;27.920;2023-06-10T02:05:12;97157.03;;;20.82;100.00
34243;BME280;20504;43.214;27.920;2023-06-10T02:07:37;97143.56;;;20.82;100.00
34243;BME280;20504;43.214;27.920;2023-06-10T02:10:04;97159.47;;;20.67;100.00
34243;BME280;20504;43.214;27.920;2023-06-10T02:12:30;97157.59;;;20.51;100.00
34243;BME280;20504;43.214;27.920;2023-06-10T02:14:55;97131.00;;;20.54;100.00
34243;BME280;20504;43.214;27.920;2023-06-10T02:17:21;97124.78;;;20.54;100.00
34243;BME280;20504;43.214;27.920;2023-06-10T02:19:48;97130.66;;;20.51;100.00
34243;BME280;20504;43.214;27.920;2023-06-10T02:22:21;97130.81;;;20.44;100.00
34243;BME280;20504;43.214;27.920;2023-06-10T02:24:47;97129.19;;;20.43;100.00
34243;BME280;20504;43.214;27.920;2023-06-10T02:27:12;97108.97;;;20.41;100.00
34243;BME280;20504;43.214;27.920;2023-06-10T02:29:38;97109.66;;;20.36;100.00
34243;BME280;20504;43.214;27.920;2023-06-10T02:32:04;97086.25;;;20.37;100.00
34243;BME280;20504;43.214;27.920;2023-06-10T02:34:29;97102.34;;;20.32;100.00
34243;BME280;20504;43.214;27.920;2023-06-10T02:36:55;97078.88;;;20.44;100.00
34243;BME280;20504;43.214;27.920;2023-06-10T02:39:21;97084.63;;;20.36;100.00
34243;BME280;20504;43.214;27.920;2023-06-10T02:41:47;97068.00;;;20.39;100.00
34243;BME280;20504;43.214;27.920;2023-06-10T02:44:12;97088.00;;;20.43;100.00
34243;BME280;20504;43.214;27.920;2023-06-10T02:46:38;97069.41;;;20.41;100.00
34243;BME280;20504;43.214;27.920;2023-06-10T02:49:03;97076.78;;;20.46;100.00
34243;BME280;20504;43.214;27.920;2023-06-10T02:51:29;97073.97;;;20.41;100.00
34243;BME280;20504;43.214;27.920;2023-06-10T02:53:54;97078.13;;;20.32;100.00
34243;BME280;20504;43.214;27.920;2023-06-10T02:56:20;97095.94;;;20.49;100.00
34243;BME280;20504;43.214;27.920;2023-06-10T02:58:45;97084.34;;;20.49;100.00
34243;BME280;20504;43.214;27.920;2023-06-10T03:01:12;97087.69;;;20.56;100.00
34243;BME280;20504;43.214;27.920;2023-06-10T03:03:37;97098.13;;;20.52;100.00
34243;BME280;20504;43.214;27.920;2023-06-10T03:06:08;97110.75;;;20.52;100.00
34243;BME280;20504;43.214;27.920;2023-06-10T03:08:33;97106.84;;;20.60;100.00
34243;BME280;20504;43.214;27.920;2023-06-10T03:10:59;97085.22;;;20.54;100.00
34243;BME280;20504;43.214;27.920;2023-06-10T03:13:24;97100.31;;;20.55;100.00
34243;BME280;20504;43.214;27.920;2023-06-10T03:15:50;97102.94;;;20.67;100.00
34243;BME280;20504;43.214;27.920;2023-06-10T03:18:15;97092.97;;;20.68;100.00
34243;BME280;20504;43.214;27.920;2023-06-10T03:20:41;97082.59;;;20.76;100.00
34243;BME280;20504;43.214;27.920;2023-06-10T03:23:06;97098.69;;;20.71;100.00
34243;BME280;20504;43.214;27.920;2023-06-10T03:25:32;97121.34;;;20.75;100.00
34243;BME280;20504;43.214;27.920;2023-06-10T03:27:57;97129.66;;;20.91;100.00
34243;BME280;20504;43.214;27.920;2023-06-10T03:30:23;97166.56;;;20.73;100.00
34243;BME280;20504;43.214;27.920;2023-06-10T03:32:48;97172.03;;;20.78;100.00
34243;BME280;20504;43.214;27.920;2023-06-10T03:35:14;97166.75;;;20.83;100.00
34243;BME280;20504;43.214;27.920;2023-06-10T03:37:40;97179.28;;;20.95;100.00
34243;BME280;20504;43.214;27.920;2023-06-10T03:40:07;97184.66;;;20.95;100.00
34243;BME280;20504;43.214;27.920;2023-06-10T03:42:34;97197.38;;;21.16;100.00
34243;BME280;20504;43.214;27.920;2023-06-10T03:45:00;97219.13;;;21.26;100.00
34243;BME280;20504;43.214;27.920;2023-06-10T03:47:25;97213.88;;;21.36;100.00
34243;BME280;20504;43.214;27.920;2023-06-10T03:49:51;97213.97;;;21.41;100.00
34243;BME280;20504;43.214;27.920;2023-06-10T03:52:18;97247.25;;;21.52;100.00
34243;BME280;20504;43.214;27.920;2023-06-10T03:54:43;97248.06;;;21.53;100.00
34243;BME280;20504;43.214;27.920;2023-06-10T03:57:09;97258.34;;;21.56;100.00
34243;BME280;20504;43.214;27.920;2023-06-10T03:59:34;97316.13;;;21.76;100.00
34243;BME280;20504;43.214;27.920;2023-06-10T04:02:00;97317.75;;;21.61;100.00
34243;BME280;20504;43.214;27.920;2023-06-10T04:04:27;97374.44;;;21.83;100.00
34243;BME280;20504;43.214;27.920;2023-06-10T04:06:53;97401.25;;;21.89;100.00
34243;BME280;20504;43.214;27.920;2023-06-10T04:09:18;97468.97;;;22.04;100.00
34243;BME280;20504;43.214;27.920;2023-06-10T04:11:44;97508.75;;;21.97;100.00
34243;BME280;20504;43.214;27.920;2023-06-10T04:14:09;97612.22;;;22.20;100.00
34243;BME280;20504;43.214;27.920;2023-06-10T04:16:35;97649.53;;;22.23;100.00
34243;BME280;20504;43.214;27.920;2023-06-10T04:19:01;97680.13;;;22.28;100.00
34243;BME280;20504;43.214;27.920;2023-06-10T04:21:27;97803.75;;;22.55;100.00
34243;BME280;20504;43.214;27.920;2023-06-10T04:23:52;97904.78;;;22.71;100.00
34243;BME280;20504;43.214;27.920;2023-06-10T04:26:18;97985.34;;;22.74;100.00
34243;BME280;20504;43.214;27.920;2023-06-10T04:28:44;98045.72;;;22.67;100.00
34243;BME280;20504;43.214;27.920;2023-06-10T04:31:09;98184.47;;;22.85;100.00
34243;BME280;20504;43.214;27.920;2023-06-10T04:33:35;98274.97;;;22.94;100.00
34243;BME280;20504;43.214;27.920;2023-06-10T04:36:01;98354.38;;;22.93;100.00
34243;BME280;20504;43.214;27.920;2023-06-10T04:38:26;98456.75;;;23.01;100.00
34243;BME280;20504;43.214;27.920;2023-06-10T04:40:52;98567.09;;;23.22;100.00
34243;BME280;20504;43.214;27.920;2023-06-10T04:43:18;98649.72;;;23.18;100.00
34243;BME280;20504;43.214;27.920;2023-06-10T04:45:43;98742.28;;;23.39;100.00
34243;BME280;20504;43.214;27.920;2023-06-10T04:48:10;98829.28;;;23.36;100.00
34243;BME280;20504;43.214;27.920;2023-06-10T04:50:36;98907.88;;;23.41;100.00
34243;BME280;20504;43.214;27.920;2023-06-10T04:53:02;98946.19;;;23.38;100.00
34243;BME280;20504;43.214;27.920;2023-06-10T04:55:27;99042.00;;;23.55;100.00
34243;BME280;20504;43.214;27.920;2023-06-10T04:57:53;99153.97;;;23.67;100.00
34243;BME280;20504;43.214;27.920;2023-06-10T05:00:18;99295.03;;;23.91;100.00
34243;BME280;20504;43.214;27.920;2023-06-10T05:02:44;99448.94;;;24.00;100.00
34243;BME280;20504;43.214;27.920;2023-06-10T05:05:10;99648.28;;;24.21;100.00
34243;BME280;20504;43.214;27.920;2023-06-10T05:07:36;99787.56;;;24.40;100.00
34243;BME280;20504;43.214;27.920;2023-06-10T05:10:02;99841.47;;;24.28;100.00
34243;BME280;20504;43.214;27.920;2023-06-10T05:12:28;99949.13;;;24.48;100.00
34243;BME280;20504;43.214;27.920;2023-06-10T05:14:53;100153.91;;;24.85;100.00
34243;BME280;20504;43.214;27.920;2023-06-10T05:17:19;100305.03;;;24.97;100.00
34243;BME280;20504;43.214;27.920;2023-06-10T05:19:44;100510.41;;;25.18;100.00
34243;BME280;20504;43.214;27.920;2023-06-10T05:22:10;100731.31;;;25.39;100.00
34243;BME280;20504;43.214;27.920;2023-06-10T05:24:35;100901.34;;;25.54;100.00
34243;BME280;20504;43.214;27.920;2023-06-10T05:27:01;101067.25;;;25.68;100.00
34243;BME280;20504;43.214;27.920;2023-06-10T05:29:28;101298.72;;;25.86;100.00
34243;BME280;20504;43.214;27.920;2023-06-10T05:31:53;101509.19;;;26.14;100.00
34243;BME280;20504;43.214;27.920;2023-06-10T05:34:21;101674.50;;;26.27;100.00
34243;BME280;20504;43.214;27.920;2023-06-10T05:36:47;101840.91;;;26.47;100.00
34243;BME280;20504;43.214;27.920;2023-06-10T05:39:12;102094.28;;;26.76;100.00
34243;BME280;20504;43.214;27.920;2023-06-10T05:41:38;102132.03;;;26.63;100.00
34243;BME280;20504;43.214;27.920;2023-06-10T05:44:03;102332.03;;;26.93;100.00
34243;BME280;20504;43.214;27.920;2023-06-10T05:46:29;102505.91;;;27.06;100.00
34243;BME280;20504;43.214;27.920;2023-06-10T05:48:55;102729.25;;;27.41;100.00
34243;BME280;20504;43.214;27.920;2023-06-10T05:51:20;102839.66;;;27.45;100.00
34243;BME280;20504;43.214;27.920;2023-06-10T05:53:46;103086.81;;;27.82;100.00
34243;BME280;20504;43.214;27.920;2023-06-10T05:56:12;103381.19;;;28.13;100.00
34243;BME280;20504;43.214;27.920;2023-06-10T05:58:38;103501.66;;;28.18;100.00
34243;BME280;20504;43.214;27.920;2023-06-10T06:01:03;103555.97;;;28.21;100.00
34243;BME280;20504;43.214;27.920;2023-06-10T06:03:29;103679.84;;;28.39;100.00
34243;BME280;20504;43.214;27.920;2023-06-10T06:05:54;103844.31;;;28.62;100.00
34243;BME280;20504;43.214;27.920;2023-06-10T06:08:20;103903.81;;;28.58;100.00
34243;BME280;20504;43.214;27.920;2023-06-10T06:10:46;104009.97;;;28.73;100.00
34243;BME280;20504;43.214;27.920;2023-06-10T06:13:13;104057.00;;;28.76;100.00
34243;BME280;20504;43.214;27.920;2023-06-10T06:15:38;104013.25;;;28.67;100.00
34243;BME280;20504;43.214;27.920;2023-06-10T06:18:04;103990.59;;;28.55;100.00
34243;BME280;20504;43.214;27.920;2023-06-10T06:20:29;103939.19;;;28.39;100.00
34243;BME280;20504;43.214;27.920;2023-06-10T06:22:55;103984.53;;;28.51;100.00
34243;BME280;20504;43.214;27.920;2023-06-10T06:25:20;104060.31;;;28.59;100.00
34243;BME280;20504;43.214;27.920;2023-06-10T06:27:46;104098.44;;;28.60;100.00
34243;BME280;20504;43.214;27.920;2023-06-10T06:30:12;104268.22;;;28.77;100.00
34243;BME280;20504;43.214;27.920;2023-06-10T06:32:37;104295.91;;;28.83;100.00
34243;BME280;20504;43.214;27.920;2023-06-10T06:35:03;104490.16;;;29.03;100.00
34243;BME280;20504;43.214;27.920;2023-06-10T06:37:31;104528.91;;;29.08;100.00
34243;BME280;20504;43.214;27.920;2023-06-10T06:39:57;104441.81;;;28.81;100.00
34243;BME280;20504;43.214;27.920;2023-06-10T06:42:23;104520.09;;;28.93;100.00
34243;BME280;20504;43.214;27.920;2023-06-10T06:44:48;104381.72;;;28.70;100.00
34243;BME280;20504;43.214;27.920;2023-06-10T06:47:14;104482.44;;;28.85;100.00
34243;BME280;20504;43.214;27.920;2023-06-10T06:49:39;104509.13;;;28.82;100.00
34243;BME280;20504;43.214;27.920;2023-06-10T06:52:05;104386.19;;;28.59;100.00
34243;BME280;20504;43.214;27.920;2023-06-10T06:54:31;104507.38;;;28.81;100.00
34243;BME280;20504;43.214;27.920;2023-06-10T06:56:56;104703.63;;;29.11;100.00
34243;BME280;20504;43.214;27.920;2023-06-10T06:59:22;104967.41;;;29.53;100.00
34243;BME280;20504;43.214;27.920;2023-06-10T07:01:48;105083.91;;;29.68;100.00
34243;BME280;20504;43.214;27.920;2023-06-10T07:04:15;105264.81;;;29.89;100.00
34243;BME280;20504;43.214;27.920;2023-06-10T07:06:41;105453.63;;;30.16;100.00
34243;BME280;20504;43.214;27.920;2023-06-10T07:09:07;105663.25;;;30.47;100.00
34243;BME280;20504;43.214;27.920;2023-06-10T07:11:36;105875.28;;;30.73;100.00
34243;BME280;20504;43.214;27.920;2023-06-10T07:14:02;106002.78;;;30.93;100.00
34243;BME280;20504;43.214;27.920;2023-06-10T07:16:27;106005.06;;;30.86;100.00
34243;BME280;20504;43.214;27.920;2023-06-10T07:18:53;106004.69;;;30.78;100.00
34243;BME280;20504;43.214;27.920;2023-06-10T07:21:20;106032.13;;;30.78;100.00
34243;BME280;20504;43.214;27.920;2023-06-10T07:23:46;106329.81;;;31.26;100.00
34243;BME280;20504;43.214;27.920;2023-06-10T07:26:12;106453.31;;;31.41;100.00
34243;BME280;20504;43.214;27.920;2023-06-10T07:28:41;106503.25;;;31.47;100.00
34243;BME280;20504;43.214;27.920;2023-06-10T07:31:07;106425.78;;;31.28;100.00
34243;BME280;20504;43.214;27.920;2023-06-10T07:33:33;106510.56;;;31.32;100.00
34243;BME280;20504;43.214;27.920;2023-06-10T07:35:58;106514.97;;;31.35;100.00
34243;BME280;20504;43.214;27.920;2023-06-10T07:38:27;106554.97;;;31.39;100.00
34243;BME280;20504;43.214;27.920;2023-06-10T07:40:52;106389.56;;;31.07;100.00
34243;BME280;20504;43.214;27.920;2023-06-10T07:43:18;106420.22;;;31.14;100.00
34243;BME280;20504;43.214;27.920;2023-06-10T07:45:44;106286.47;;;30.89;100.00
34243;BME280;20504;43.214;27.920;2023-06-10T07:48:10;106196.94;;;30.73;100.00
34243;BME280;20504;43.214;27.920;2023-06-10T07:50:36;106261.88;;;30.87;100.00
34243;BME280;20504;43.214;27.920;2023-06-10T07:53:02;106301.75;;;30.93;100.00
34243;BME280;20504;43.214;27.920;2023-06-10T07:55:28;106550.66;;;31.35;100.00
34243;BME280;20504;43.214;27.920;2023-06-10T07:57:54;106501.19;;;31.21;100.00
34243;BME280;20504;43.214;27.920;2023-06-10T08:00:20;106607.84;;;31.43;100.00
34243;BME280;20504;43.214;27.920;2023-06-10T08:02:46;106600.75;;;31.39;100.00
34243;BME280;20504;43.214;27.920;2023-06-10T08:05:12;106447.66;;;31.14;100.00
34243;BME280;20504;43.214;27.920;2023-06-10T08:07:38;106489.44;;;31.19;100.00
34243;BME280;20504;43.214;27.920;2023-06-10T08:10:05;106640.69;;;31.44;100.00
34243;BME280;20504;43.214;27.920;2023-06-10T08:12:32;106686.09;;;31.50;100.00
34243;BME280;20504;43.214;27.920;2023-06-10T08:14:58;106755.63;;;31.66;100.00
34243;BME280;20504;43.214;27.920;2023-06-10T08:17:23;107058.72;;;32.14;100.00
34243;BME280;20504;43.214;27.920;2023-06-10T08:19:50;107053.31;;;32.12;100.00
34243;BME280;20504;43.214;27.920;2023-06-10T08:22:15;106935.78;;;31.86;100.00
34243;BME280;20504;43.214;27.920;2023-06-10T08:24:41;106808.41;;;31.71;100.00
34243;BME280;20504;43.214;27.920;2023-06-10T08:27:06;106732.22;;;31.59;100.00
34243;BME280;20504;43.214;27.920;2023-06-10T08:29:32;106749.34;;;31.64;100.00
34243;BME280;20504;43.214;27.920;2023-06-10T08:31:57;106979.56;;;32.05;100.00
34243;BME280;20504;43.214;27.920;2023-06-10T08:34:23;106970.53;;;32.03;100.00
34243;BME280;20504;43.214;27.920;2023-06-10T08:36:49;107179.06;;;32.42;100.00
34243;BME280;20504;43.214;27.920;2023-06-10T08:39:19;107092.28;;;32.20;100.00
34243;BME280;20504;43.214;27.920;2023-06-10T08:44:28;107058.22;;;32.23;100.00
34243;BME280;20504;43.214;27.920;2023-06-10T08:46:56;107034.78;;;32.16;100.00
34243;BME280;20504;43.214;27.920;2023-06-10T08:49:26;106868.69;;;31.90;100.00
34243;BME280;20504;43.214;27.920;2023-06-10T08:51:55;106964.69;;;32.09;100.00
34243;BME280;20504;43.214;27.920;2023-06-10T08:54:27;106733.56;;;31.68;100.00
34243;BME280;20504;43.214;27.920;2023-06-10T08:56:55;106690.78;;;31.63;100.00
34243;BME280;20504;43.214;27.920;2023-06-10T08:59:23;106667.06;;;31.62;100.00
34243;BME280;20504;43.214;27.920;2023-06-10T09:01:50;106584.16;;;31.56;100.00
34243;BME280;20504;43.214;27.920;2023-06-10T09:04:17;106642.41;;;31.61;100.00
34243;BME280;20504;43.214;27.920;2023-06-10T09:06:44;106739.31;;;31.79;100.00
34243;BME280;20504;43.214;27.920;2023-06-10T09:09:09;106546.63;;;31.41;100.00
34243;BME280;20504;43.214;27.920;2023-06-10T09:11:36;106777.44;;;31.85;100.00
34243;BME280;20504;43.214;27.920;2023-06-10T09:14:03;106926.09;;;32.10;100.00
34243;BME280;20504;43.214;27.920;2023-06-10T09:16:28;106962.53;;;32.14;100.00
34243;BME280;20504;43.214;27.920;2023-06-10T09:18:54;106884.66;;;31.99;100.00
34243;BME280;20504;43.214;27.920;2023-06-10T09:21:23;106802.16;;;31.85;100.00
34243;BME280;20504;43.214;27.920;2023-06-10T09:23:49;106978.06;;;32.15;100.00
34243;BME280;20504;43.214;27.920;2023-06-10T09:26:15;107150.78;;;32.40;100.00
34243;BME280;20504;43.214;27.920;2023-06-10T09:28:49;107347.88;;;32.72;100.00
34243;BME280;20504;43.214;27.920;2023-06-10T09:31:16;107384.00;;;32.83;100.00
34243;BME280;20504;43.214;27.920;2023-06-10T09:33:44;107342.38;;;32.72;100.00
34243;BME280;20504;43.214;27.920;2023-06-10T09:36:10;107339.72;;;32.71;100.00
34243;BME280;20504;43.214;27.920;2023-06-10T09:38:36;107501.44;;;33.00;100.00
34243;BME280;20504;43.214;27.920;2023-06-10T09:41:03;107572.38;;;33.12;100.00
34243;BME280;20504;43.214;27.920;2023-06-10T09:43:42;107371.53;;;32.76;100.00
34243;BME280;20504;43.214;27.920;2023-06-10T09:46:19;107557.03;;;33.07;100.00
34243;BME280;20504;43.214;27.920;2023-06-10T09:48:47;107344.34;;;32.70;100.00
34243;BME280;20504;43.214;27.920;2023-06-10T09:51:16;107277.78;;;32.64;100.00
34243;BME280;20504;43.214;27.920;2023-06-10T09:53:53;107340.97;;;32.65;100.00
34243;BME280;20504;43.214;27.920;2023-06-10T09:56:19;107290.72;;;32.62;100.00
34243;BME280;20504;43.214;27.920;2023-06-10T09:58:46;107376.06;;;32.77;100.00
34243;BME280;20504;43.214;27.920;2023-06-10T10:01:14;107395.19;;;32.80;100.00
34243;BME280;20504;43.214;27.920;2023-06-10T10:03:47;107510.84;;;32.96;100.00
34243;BME280;20504;43.214;27.920;2023-06-10T10:06:15;107670.59;;;33.29;100.00
34243;BME280;20504;43.214;27.920;2023-06-10T10:08:41;107896.41;;;33.67;100.00
34243;BME280;20504;43.214;27.920;2023-06-10T10:11:06;108057.66;;;33.94;100.00
34243;BME280;20504;43.214;27.920;2023-06-10T10:13:35;108261.91;;;34.29;100.00
34243;BME280;20504;43.214;27.920;2023-06-10T10:16:06;108273.81;;;34.29;100.00
34243;BME280;20504;43.214;27.920;2023-06-10T10:18:39;108244.75;;;34.22;100.00
34243;BME280;20504;43.214;27.920;2023-06-10T10:21:11;108124.66;;;33.96;100.00
34243;BME280;20504;43.214;27.920;2023-06-10T10:26:13;108405.34;;;34.49;100.00
34243;BME280;20504;43.214;27.920;2023-06-10T10:28:45;108554.22;;;34.73;100.00
34243;BME280;20504;43.214;27.920;2023-06-10T10:31:16;108726.88;;;35.03;100.00
34243;BME280;20504;43.214;27.920;2023-06-10T10:34:06;108193.66;;;34.14;100.00
34243;BME280;20504;43.214;27.920;2023-06-10T10:36:32;108249.50;;;34.19;100.00
34243;BME280;20504;43.214;27.920;2023-06-10T10:38:59;108233.25;;;34.13;100.00
34243;BME280;20504;43.214;27.920;2023-06-10T10:41:28;108286.16;;;34.21;100.00
34243;BME280;20504;43.214;27.920;2023-06-10T10:43:55;108266.03;;;34.19;100.00
34243;BME280;20504;43.214;27.920;2023-06-10T10:46:21;108602.78;;;34.78;100.00
34243;BME280;20504;43.214;27.920;2023-06-10T10:48:52;109034.16;;;35.55;100.00
34243;BME280;20504;43.214;27.920;2023-06-10T10:51:18;109168.03;;;35.71;100.00
34243;BME280;20504;43.214;27.920;2023-06-10T10:53:44;109254.97;;;35.88;100.00
34243;BME280;20504;43.214;27.920;2023-06-10T10:56:14;109248.47;;;35.89;100.00
34243;BME280;20504;43.214;27.920;2023-06-10T10:58:40;109523.38;;;36.36;100.00
34243;BME280;20504;43.214;27.920;2023-06-10T11:01:15;109476.66;;;36.27;100.00
34243;BME280;20504;43.214;27.920;2023-06-10T11:03:45;109686.53;;;36.67;100.00
34243;BME280;20504;43.214;27.920;2023-06-10T11:06:16;109218.28;;;35.83;100.00
34243;BME280;20504;43.214;27.920;2023-06-10T11:11:23;109073.75;;;35.56;100.00
34243;BME280;20504;43.214;27.920;2023-06-10T11:16:31;109036.13;;;35.51;100.00
34243;BME280;20504;43.214;27.920;2023-06-10T11:19:03;109306.97;;;36.01;100.00
34243;BME280;20504;43.214;27.920;2023-06-10T11:21:28;109558.84;;;36.50;100.00
34243;BME280;20504;43.214;27.920;2023-06-10T11:23:54;109737.81;;;36.77;100.00
34243;BME280;20504;43.214;27.920;2023-06-10T11:31:38;110488.19;;;38.26;100.00
34243;BME280;20504;43.214;27.920;2023-06-10T11:34:05;111087.97;;;39.40;100.00
34243;BME280;20504;43.214;27.920;2023-06-10T11:36:33;111585.75;;;40.37;100.00
34243;BME280;20504;43.214;27.920;2023-06-10T11:39:01;111693.84;;;40.63;100.00
34243;BME280;20504;43.214;27.920;2023-06-10T11:41:28;111797.44;;;40.85;100.00
34243;BME280;20504;43.214;27.920;2023-06-10T11:43:55;111868.63;;;41.01;100.00
34243;BME280;20504;43.214;27.920;2023-06-10T11:46:24;111094.88;;;39.59;100.00
34243;BME280;20504;43.214;27.920;2023-06-10T11:48:56;111393.13;;;40.17;100.00
34243;BME280;20504;43.214;27.920;2023-06-10T11:51:27;111089.34;;;39.58;100.00
34243;BME280;20504;43.214;27.920;2023-06-10T11:53:54;110528.00;;;38.54;100.00
34243;BME280;20504;43.214;27.920;2023-06-10T11:56:24;109901.91;;;37.40;100.00
34243;BME280;20504;43.214;27.920;2023-06-10T11:59:01;109310.44;;;36.31;100.00
34243;BME280;20504;43.214;27.920;2023-06-10T12:01:33;109446.81;;;36.58;100.00
34243;BME280;20504;43.214;27.920;2023-06-10T12:04:08;109787.00;;;37.22;100.00
34243;BME280;20504;43.214;27.920;2023-06-10T12:06:53;110563.88;;;38.62;100.00
34243;BME280;20504;43.214;27.920;2023-06-10T12:09:19;110884.53;;;39.21;100.00
34243;BME280;20504;43.214;27.920;2023-06-10T12:11:49;111021.31;;;39.68;100.00
34243;BME280;20504;43.214;27.920;2023-06-10T12:14:15;110699.41;;;39.13;100.00
34243;BME280;20504;43.214;27.920;2023-06-10T12:16:40;110414.63;;;38.65;100.00
34243;BME280;20504;43.214;27.920;2023-06-10T12:19:13;110355.63;;;38.57;100.00
34243;BME280;20504;43.214;27.920;2023-06-10T12:21:38;110558.22;;;38.93;100.00
34243;BME280;20504;43.214;27.920;2023-06-10T12:24:08;110755.38;;;39.30;100.00
34243;BME280;20504;43.214;27.920;2023-06-10T12:26:36;111200.06;;;40.12;100.00
34243;BME280;20504;43.214;27.920;2023-06-10T12:29:12;111468.81;;;40.67;100.00
34243;BME280;20504;43.214;27.920;2023-06-10T12:31:56;111212.69;;;40.25;100.00
34243;BME280;20504;43.214;27.920;2023-06-10T12:34:30;110975.63;;;39.75;100.00
34243;BME280;20504;43.214;27.920;2023-06-10T12:36:56;110598.56;;;39.06;100.00
34243;BME280;20504;43.214;27.920;2023-06-10T12:39:21;110368.38;;;38.64;100.00
34243;BME280;20504;43.214;27.920;2023-06-10T12:41:51;110594.81;;;39.07;100.00
34243;BME280;20504;43.214;27.920;2023-06-10T12:44:16;111065.03;;;39.95;100.00
34243;BME280;20504;43.214;27.920;2023-06-10T12:46:41;111463.94;;;40.75;100.00
34243;BME280;20504;43.214;27.920;2023-06-10T12:49:07;111668.28;;;41.15;100.00
34243;BME280;20504;43.214;27.920;2023-06-10T12:51:32;111517.59;;;40.84;100.00
34243;BME280;20504;43.214;27.920;2023-06-10T12:54:00;112202.63;;;42.26;100.00